createdAt,value
2019-03-27T00:01:14.425Z,7.37
2019-03-27T00:03:43.923Z,5.40
2019-03-27T00:06:19.733Z,3.98
2019-03-27T00:08:48.184Z,3.47
2019-03-27T00:11:17.035Z,4.45
2019-03-27T00:13:46.583Z,3.20
2019-03-27T00:16:15.733Z,5.35
2019-03-27T00:18:44.535Z,6.58
2019-03-27T00:21:13.199Z,5.65
2019-03-27T00:23:41.649Z,4.50
2019-03-27T00:26:16.942Z,4.45
2019-03-27T00:28:45.382Z,6.17
2019-03-27T00:31:26.966Z,5.20
2019-03-27T00:33:55.326Z,2.55
2019-03-27T00:36:23.729Z,6.17
2019-03-27T00:38:52.059Z,4.80
2019-03-27T00:41:20.467Z,6.17
2019-03-27T00:43:49.054Z,5.40
2019-03-27T00:46:24.553Z,4.25
2019-03-27T00:48:53.305Z,2.98
2019-03-27T00:51:21.847Z,3.85
2019-03-27T00:53:50.547Z,4.22
2019-03-27T00:56:18.926Z,4.30
2019-03-27T00:58:47.320Z,6.00
2019-03-27T01:01:15.693Z,4.55
2019-03-27T01:03:44.112Z,5.25
2019-03-27T01:06:19.955Z,4.92
2019-03-27T01:08:49.049Z,3.25
2019-03-27T01:11:23.710Z,4.40
2019-03-27T01:13:52.263Z,4.78
2019-03-27T01:16:20.786Z,4.00
2019-03-27T01:18:49.797Z,3.40
2019-03-27T01:21:18.869Z,4.30
2019-03-27T01:23:47.271Z,5.22
2019-03-27T01:26:15.739Z,3.87
2019-03-27T01:28:44.220Z,4.47
2019-03-27T01:31:16.199Z,3.87
2019-03-27T01:33:44.867Z,3.90
2019-03-27T01:36:14.667Z,3.90
2019-03-27T01:38:43.031Z,5.17
2019-03-27T01:41:18.568Z,7.67
2019-03-27T01:43:47.293Z,3.70
2019-03-27T01:46:15.877Z,2.90
2019-03-27T01:48:44.402Z,5.70
2019-03-27T01:51:19.396Z,3.55
2019-03-27T01:53:48.159Z,3.45
2019-03-27T01:56:17.295Z,3.55
2019-03-27T01:58:45.855Z,2.62
2019-03-27T02:01:15.826Z,3.90
2019-03-27T02:03:44.180Z,5.00
2019-03-27T02:06:25.831Z,5.08
2019-03-27T02:08:54.207Z,3.98
2019-03-27T02:11:24.674Z,2.90
2019-03-27T02:13:54.075Z,2.50
2019-03-27T02:16:23.194Z,3.25
2019-03-27T02:18:51.619Z,4.08
2019-03-27T02:21:20.064Z,3.72
2019-03-27T02:23:48.457Z,3.02
2019-03-27T02:26:20.126Z,2.98
2019-03-27T02:28:49.528Z,5.33
2019-03-27T02:31:18.900Z,4.17
2019-03-27T02:33:49.706Z,3.30
2019-03-27T02:36:18.139Z,3.05
2019-03-27T02:38:47.340Z,4.10
2019-03-27T02:41:15.826Z,5.12
2019-03-27T02:43:44.313Z,4.60
2019-03-27T02:46:24.579Z,4.70
2019-03-27T02:48:42.816Z,3.17
2019-03-27T02:51:16.114Z,4.60
2019-03-27T02:53:44.490Z,2.98
2019-03-27T02:56:14.616Z,3.15
2019-03-27T02:58:44.044Z,2.75
2019-03-27T03:01:12.811Z,2.98
2019-03-27T03:03:41.572Z,4.45
2019-03-27T03:06:22.560Z,3.90
2019-03-27T03:08:50.988Z,3.50
2019-03-27T03:11:19.452Z,2.87
2019-03-27T03:13:47.983Z,2.37
2019-03-27T03:16:18.540Z,2.52
2019-03-27T03:18:47.379Z,3.42
2019-03-27T03:21:15.812Z,3.77
2019-03-27T03:23:44.565Z,2.98
2019-03-27T03:26:12.966Z,3.72
2019-03-27T03:28:41.375Z,4.87
2019-03-27T03:31:09.876Z,2.00
2019-03-27T03:33:39.622Z,2.87
2019-03-27T03:36:15.807Z,2.47
2019-03-27T03:38:44.600Z,3.27
2019-03-27T03:41:20.116Z,2.60
2019-03-27T03:43:48.901Z,3.45
2019-03-27T03:46:22.145Z,5.70
2019-03-27T03:48:50.581Z,2.40
2019-03-27T03:51:19.374Z,2.55
2019-03-27T03:53:47.837Z,2.75
2019-03-27T03:56:19.905Z,4.42
2019-03-27T03:58:48.319Z,2.70
2019-03-27T04:01:24.167Z,2.52
2019-03-27T04:03:53.172Z,3.58
2019-03-27T04:06:21.665Z,3.20
2019-03-27T04:08:50.471Z,5.03
2019-03-27T04:11:19.291Z,3.70
2019-03-27T04:13:47.688Z,4.65
2019-03-27T04:16:16.073Z,3.95
2019-03-27T04:18:44.990Z,3.08
2019-03-27T04:21:19.954Z,3.72
2019-03-27T04:23:49.189Z,3.00
2019-03-27T04:26:17.636Z,3.98
2019-03-27T04:28:46.065Z,3.10
2019-03-27T04:31:19.079Z,3.42
2019-03-27T04:33:47.495Z,2.67
2019-03-27T04:36:19.044Z,2.92
2019-03-27T04:38:47.447Z,3.20
2019-03-27T04:41:15.878Z,5.00
2019-03-27T04:43:45.608Z,2.15
2019-03-27T04:46:14.760Z,2.42
2019-03-27T04:48:43.491Z,4.05
2019-03-27T04:51:14.738Z,2.45
2019-03-27T04:53:43.156Z,2.30
2019-03-27T04:56:18.526Z,3.90
2019-03-27T04:58:47.265Z,3.40
2019-03-27T05:01:17.812Z,2.62
2019-03-27T05:03:46.556Z,2.85
2019-03-27T05:06:18.099Z,3.60
2019-03-27T05:08:46.556Z,2.65
2019-03-27T05:11:14.990Z,2.85
2019-03-27T05:13:43.376Z,2.55
2019-03-27T05:16:13.888Z,2.37
2019-03-27T05:18:43.453Z,3.25
2019-03-27T05:21:12.944Z,4.28
2019-03-27T05:23:41.737Z,2.65
2019-03-27T05:26:16.466Z,3.05
2019-03-27T05:28:44.827Z,2.95
2019-03-27T05:31:19.866Z,2.55
2019-03-27T05:33:48.555Z,3.50
2019-03-27T05:36:23.154Z,2.22
2019-03-27T05:38:51.563Z,3.20
2019-03-27T05:41:20.275Z,4.85
2019-03-27T05:43:48.735Z,3.00
2019-03-27T05:46:19.086Z,3.40
2019-03-27T05:48:47.659Z,4.08
2019-03-27T05:51:16.031Z,3.75
2019-03-27T05:53:44.701Z,3.02
2019-03-27T05:56:13.268Z,2.25
2019-03-27T05:58:42.107Z,4.47
2019-03-27T06:01:10.479Z,3.17
2019-03-27T06:03:39.822Z,2.80
2019-03-27T06:06:14.919Z,2.75
2019-03-27T06:08:43.736Z,2.70
2019-03-27T06:11:12.764Z,2.80
2019-03-27T06:13:41.199Z,6.58
2019-03-27T06:16:16.777Z,9.50
2019-03-27T06:18:47.114Z,15.25
2019-03-27T06:21:22.512Z,13.53
2019-03-27T06:23:50.920Z,17.77
2019-03-27T06:26:19.639Z,16.70
2019-03-27T06:28:48.107Z,14.45
2019-03-27T06:31:22.223Z,13.90
2019-03-27T06:33:50.642Z,18.48
2019-03-27T06:36:24.603Z,15.95
2019-03-27T06:38:53.489Z,16.23
2019-03-27T06:41:22.209Z,11.08
2019-03-27T06:43:50.919Z,12.95
2019-03-27T06:46:19.380Z,14.20
2019-03-27T06:48:48.052Z,16.50
2019-03-27T06:51:17.426Z,17.95
2019-03-27T06:53:46.399Z,16.48
2019-03-27T06:56:14.766Z,11.28
2019-03-27T06:58:54.067Z,10.63
2019-03-27T07:01:14.451Z,10.72
2019-03-27T07:03:42.913Z,8.70
2019-03-27T07:06:11.284Z,8.23
2019-03-27T07:08:39.695Z,11.60
2019-03-27T07:11:08.205Z,17.62
2019-03-27T07:13:36.903Z,14.83
2019-03-27T14:01:20.753Z,9.65
2019-03-27T14:03:49.482Z,7.78
2019-03-27T14:06:17.903Z,10.78
2019-03-27T14:08:46.311Z,9.75
2019-03-27T14:13:55.673Z,14.30
2019-03-27T14:16:24.013Z,11.90
2019-03-27T14:18:52.471Z,11.18
2019-03-27T14:21:23.250Z,13.00
2019-03-27T14:23:50.891Z,11.57
2019-03-27T14:26:19.543Z,9.70
2019-03-27T14:28:47.968Z,10.23
2019-03-27T14:31:20.882Z,10.50
2019-03-27T14:36:24.219Z,11.40
2019-03-27T14:38:52.892Z,6.65
2019-03-27T14:41:21.591Z,10.20
2019-03-27T14:43:56.964Z,8.65
2019-03-27T14:46:25.412Z,12.40
2019-03-27T14:48:53.967Z,10.82
2019-03-27T14:51:22.371Z,10.88
2019-03-27T14:53:50.777Z,12.63
2019-03-27T14:56:19.410Z,11.00
2019-03-27T14:58:47.819Z,9.28
2019-03-27T15:01:16.479Z,13.72
2019-03-27T15:03:45.307Z,13.22
2019-03-27T15:06:13.758Z,10.03
2019-03-27T15:08:42.152Z,11.03
2019-03-27T15:11:19.267Z,10.08
2019-03-27T15:13:47.697Z,11.55
2019-03-27T15:16:21.043Z,10.93
2019-03-27T15:18:52.409Z,14.38
2019-03-27T15:21:19.467Z,13.50
2019-03-27T15:23:48.005Z,11.03
2019-03-27T15:26:16.643Z,12.07
2019-03-27T15:28:45.064Z,13.98
2019-03-27T15:31:20.367Z,9.40
2019-03-27T15:33:43.862Z,8.38
2019-03-27T15:36:18.350Z,8.63
2019-03-27T15:38:46.996Z,12.60
2019-03-27T15:41:15.670Z,12.98
2019-03-27T15:43:44.556Z,9.33
2019-03-27T15:46:20.031Z,9.50
2019-03-27T15:48:48.405Z,8.80
2019-03-27T15:51:16.770Z,8.45
2019-03-27T15:53:47.291Z,9.38
2019-03-27T15:56:15.213Z,7.67
2019-03-27T15:58:43.942Z,10.10
2019-03-27T16:01:19.141Z,7.83
2019-03-27T16:03:47.875Z,11.45
2019-03-27T16:06:23.479Z,11.08
2019-03-27T16:08:51.915Z,9.30
2019-03-27T16:11:20.379Z,11.43
2019-03-27T16:13:48.848Z,11.25
2019-03-27T16:16:21.451Z,9.68
2019-03-27T16:18:49.860Z,9.55
2019-03-27T16:21:18.314Z,11.03
2019-03-27T16:23:47.107Z,13.78
2019-03-27T16:26:20.649Z,12.60
2019-03-27T16:28:49.064Z,7.58
2019-03-27T16:31:17.836Z,6.92
2019-03-27T16:33:46.511Z,13.83
2019-03-27T16:36:21.701Z,10.58
2019-03-27T16:38:50.438Z,13.05
2019-03-27T16:41:25.763Z,8.15
2019-03-27T16:43:54.172Z,10.03
2019-03-27T16:46:22.992Z,8.18
2019-03-27T16:48:51.343Z,9.38
2019-03-27T16:51:19.823Z,9.25
2019-03-27T16:53:48.471Z,7.28
2019-03-27T16:56:22.517Z,10.25
2019-03-27T16:58:50.829Z,9.13
2019-03-27T17:01:20.217Z,8.65
2019-03-27T17:03:48.775Z,8.50
2019-03-27T17:06:17.195Z,10.20
2019-03-27T17:08:45.947Z,13.43
2019-03-27T17:11:14.599Z,13.78
2019-03-27T17:13:44.666Z,12.80
2019-03-27T17:16:19.969Z,9.63
2019-03-27T17:18:48.372Z,14.03
2019-03-27T17:21:16.858Z,15.03
2019-03-27T17:23:45.570Z,11.08
2019-03-27T17:26:20.520Z,11.15
2019-03-27T17:28:48.964Z,10.28
2019-03-27T17:31:27.039Z,10.55
2019-03-27T17:33:55.811Z,9.73
2019-03-27T17:36:24.259Z,10.80
2019-03-27T17:38:53.242Z,13.93
2019-03-27T17:41:22.007Z,15.00
2019-03-27T17:43:50.357Z,14.05
2019-03-27T17:46:26.868Z,11.88
2019-03-27T17:48:55.295Z,12.78
2019-03-27T17:51:24.898Z,13.88
2019-03-27T17:53:53.611Z,14.28
2019-03-27T17:56:23.887Z,17.75
2019-03-27T17:58:52.653Z,12.50
2019-03-27T18:01:21.022Z,10.48
2019-03-27T18:03:49.434Z,18.48
2019-03-27T18:06:18.268Z,15.00
2019-03-27T18:08:46.904Z,12.88
2019-03-27T18:11:21.386Z,11.70
2019-03-27T18:13:56.283Z,13.60
2019-03-27T18:16:25.117Z,14.68
2019-03-27T18:18:53.522Z,13.38
2019-03-27T18:21:29.281Z,13.28
2019-03-27T18:23:57.720Z,14.33
2019-03-27T18:26:26.702Z,13.30
2019-03-27T18:28:55.040Z,14.33
2019-03-27T18:31:23.522Z,15.63
2019-03-27T18:33:52.691Z,16.93
2019-03-27T18:36:21.128Z,14.60
2019-03-27T18:38:49.591Z,15.10
2019-03-27T18:41:18.267Z,12.85
2019-03-27T18:43:46.659Z,12.00
2019-03-27T18:46:15.466Z,12.63
2019-03-27T18:48:44.139Z,10.10
2019-03-27T18:51:13.061Z,11.00
2019-03-27T18:53:41.471Z,14.98
2019-03-27T18:56:16.031Z,12.23
2019-03-27T18:58:44.442Z,13.78
2019-03-27T19:01:15.692Z,18.32
2019-03-27T19:03:44.119Z,13.03
2019-03-27T19:06:19.759Z,11.85
2019-03-27T19:08:48.130Z,13.13
2019-03-27T19:11:19.938Z,10.63
2019-03-27T19:13:48.630Z,9.78
2019-03-27T19:16:22.719Z,12.73
2019-03-27T19:18:51.430Z,10.63
2019-03-27T19:21:19.843Z,10.95
2019-03-27T19:23:48.235Z,14.03
2019-03-27T19:26:16.873Z,26.50
2019-03-27T19:28:45.276Z,14.23
2019-03-27T19:31:13.999Z,29.57
2019-03-27T19:33:42.471Z,29.80
2019-03-27T19:36:13.681Z,57.13
2019-03-27T19:38:42.050Z,22.65
2019-03-27T19:41:16.867Z,11.73
2019-03-27T19:43:45.565Z,11.63
2019-03-27T19:46:13.925Z,16.82
2019-03-27T19:48:42.327Z,15.45
2019-03-27T19:51:11.458Z,15.30
2019-03-27T19:53:39.976Z,16.25
2019-03-27T19:56:08.385Z,17.12
2019-03-27T19:58:36.880Z,10.63
2019-03-27T20:01:05.480Z,13.18
2019-03-27T20:03:34.776Z,14.15
2019-03-27T20:06:09.562Z,13.35
2019-03-27T20:08:37.927Z,16.65
2019-03-27T20:11:12.832Z,18.35
2019-03-27T20:13:41.796Z,12.73
2019-03-27T20:16:15.147Z,15.70
2019-03-27T20:18:43.550Z,16.23
2019-03-27T20:21:12.260Z,15.20
2019-03-27T20:23:40.980Z,22.30
2019-03-27T20:26:09.411Z,18.45
2019-03-27T20:28:37.805Z,13.25
2019-03-27T20:31:12.683Z,18.82
2019-03-27T20:33:41.033Z,15.23
2019-03-27T20:36:09.444Z,17.00
2019-03-27T20:38:37.868Z,17.40
2019-03-27T20:41:06.234Z,17.95
2019-03-27T20:43:34.664Z,13.15
2019-03-27T20:46:03.069Z,11.68
2019-03-27T20:48:31.431Z,16.82
2019-03-27T20:50:59.881Z,15.18
2019-03-27T20:53:28.527Z,21.10
2019-03-27T20:55:57.199Z,16.95
2019-03-27T20:58:25.699Z,18.23
2019-03-27T21:00:54.115Z,15.08
2019-03-27T21:03:22.763Z,15.78
2019-03-27T21:05:51.153Z,14.53
2019-03-27T21:08:19.537Z,11.43
2019-03-27T21:10:47.938Z,22.87
2019-03-27T21:13:19.998Z,20.82
2019-03-27T21:15:48.435Z,23.63
2019-03-27T21:18:23.318Z,15.85
2019-03-27T21:20:51.940Z,19.05
2019-03-27T21:23:21.055Z,17.55
2019-03-27T21:25:50.328Z,17.05
2019-03-27T21:28:22.418Z,22.90
2019-03-27T21:30:50.844Z,19.25
2019-03-27T21:33:21.697Z,16.17
2019-03-27T21:35:50.120Z,19.37
2019-03-27T21:38:25.438Z,17.55
2019-03-27T21:40:53.901Z,19.42
2019-03-27T21:43:22.445Z,19.70
2019-03-27T21:45:51.190Z,20.48
2019-03-27T21:48:19.575Z,17.92
2019-03-27T21:50:48.008Z,17.75
2019-03-27T21:53:21.146Z,19.55
2019-03-27T21:55:49.520Z,20.15
2019-03-27T21:58:18.272Z,20.35
2019-03-27T22:00:46.744Z,19.60
2019-03-27T22:03:21.443Z,22.58
2019-03-27T22:05:50.174Z,20.12
2019-03-27T22:08:20.831Z,20.35
2019-03-27T22:10:49.246Z,22.40
2019-03-27T22:13:23.509Z,21.52
2019-03-27T22:15:52.435Z,23.35
2019-03-27T22:18:23.232Z,23.15
2019-03-27T22:20:51.691Z,27.90
2019-03-27T22:23:20.186Z,29.27
2019-03-27T22:25:48.970Z,22.42
2019-03-27T22:28:17.660Z,25.57
2019-03-27T22:30:46.067Z,29.42
2019-03-27T22:33:21.350Z,25.92
2019-03-27T22:35:50.056Z,29.05
2019-03-27T22:38:18.427Z,27.82
2019-03-27T22:40:46.904Z,32.05
2019-03-27T22:43:15.355Z,27.42
2019-03-27T22:45:43.770Z,30.82
2019-03-27T22:48:17.255Z,33.55
2019-03-27T22:50:45.641Z,32.83
2019-03-27T22:53:19.534Z,37.20
2019-03-27T22:55:50.163Z,31.15
2019-03-27T22:58:18.788Z,30.40
2019-03-27T23:00:48.433Z,29.00
2019-03-27T23:03:18.904Z,26.33
2019-03-27T23:05:49.686Z,31.00
2019-03-27T23:08:24.676Z,34.40
2019-03-27T23:10:53.055Z,33.40
2019-03-27T23:13:21.604Z,31.12
2019-03-27T23:15:50.016Z,34.95
2019-03-27T23:18:18.403Z,33.67
2019-03-27T23:20:46.806Z,31.45
2019-03-27T23:23:15.560Z,25.43
2019-03-27T23:25:44.352Z,33.55
2019-03-27T23:28:12.998Z,29.50
2019-03-27T23:30:42.526Z,24.05
2019-03-27T23:33:11.397Z,28.52
2019-03-27T23:35:40.688Z,27.62
2019-03-27T23:38:17.923Z,28.92
2019-03-27T23:40:46.299Z,31.30
2019-03-27T23:43:20.831Z,28.57
2019-03-27T23:45:49.198Z,28.25
2019-03-27T23:48:18.014Z,33.45
2019-03-27T23:50:46.455Z,25.27
2019-03-27T23:53:15.380Z,28.95
2019-03-27T23:55:43.792Z,28.90
2019-03-27T23:58:13.991Z,32.55
